createdAt,value
2022-12-24T00:04:10.844Z,10.78
2022-12-24T00:09:10.116Z,10.96
2022-12-24T00:14:08.976Z,11.10
2022-12-24T00:19:07.784Z,11.01
2022-12-24T00:24:06.815Z,11.09
2022-12-24T00:29:05.683Z,11.05
2022-12-24T00:34:04.643Z,11.10
2022-12-24T00:39:03.618Z,11.13
2022-12-24T00:44:05.912Z,11.01
2022-12-24T00:49:05.582Z,10.91
2022-12-24T00:54:05.216Z,10.81
2022-12-24T00:59:04.088Z,10.62
2022-12-24T01:04:21.729Z,10.83
2022-12-24T01:09:20.479Z,11.01
2022-12-24T01:14:19.324Z,11.20
2022-12-24T01:19:18.017Z,11.10
2022-12-24T01:24:17.047Z,11.08
2022-12-24T01:29:15.955Z,11.18
2022-12-24T01:34:14.755Z,11.25
2022-12-24T01:39:13.548Z,11.29
2022-12-24T01:44:43.458Z,11.15
2022-12-24T01:49:46.683Z,10.99
2022-12-24T01:54:52.216Z,11.04
2022-12-24T01:59:55.604Z,11.05
2022-12-24T02:05:01.932Z,11.01
2022-12-24T02:10:01.693Z,10.82
2022-12-24T02:15:01.611Z,10.66
2022-12-24T02:20:35.667Z,10.59
2022-12-24T02:26:02.727Z,10.68
2022-12-24T02:31:27.915Z,10.83
2022-12-24T02:36:38.424Z,11.05
2022-12-24T02:42:01.146Z,11.09
2022-12-24T02:47:01.673Z,10.85
2022-12-24T02:52:00.620Z,10.81
2022-12-24T02:57:05.374Z,10.71
2022-12-24T03:02:26.955Z,10.68
2022-12-24T03:07:32.680Z,10.77
2022-12-24T03:12:52.202Z,10.72
2022-12-24T03:17:54.465Z,10.73
2022-12-24T03:22:53.334Z,10.85
2022-12-24T03:27:53.026Z,11.00
2022-12-24T03:32:51.756Z,10.81
2022-12-24T03:37:50.557Z,10.76
2022-12-24T03:42:49.395Z,10.72
2022-12-24T03:47:48.206Z,10.76
2022-12-24T03:52:47.063Z,10.77
2022-12-24T03:57:45.808Z,10.68
2022-12-24T04:02:44.801Z,10.80
2022-12-24T04:07:43.660Z,10.94
2022-12-24T04:12:42.440Z,10.83
2022-12-24T04:17:41.152Z,10.87
2022-12-24T04:22:39.932Z,11.03
2022-12-24T04:27:38.640Z,10.95
2022-12-24T04:32:37.613Z,11.17
2022-12-24T04:37:36.784Z,11.27
2022-12-24T04:42:35.562Z,11.28
2022-12-24T04:47:34.443Z,11.31
2022-12-24T04:52:34.174Z,11.31
2022-12-24T04:57:33.892Z,11.17
2022-12-24T05:02:33.057Z,11.09
2022-12-24T05:07:32.040Z,11.04
2022-12-24T05:12:31.024Z,10.86
2022-12-24T05:17:29.821Z,10.86
2022-12-24T05:22:46.917Z,10.87
2022-12-24T05:27:51.072Z,10.86
2022-12-24T05:32:50.355Z,10.84
2022-12-24T05:37:49.103Z,10.76
2022-12-24T05:42:47.961Z,10.66
2022-12-24T05:47:46.787Z,10.59
2022-12-24T05:52:45.610Z,10.60
2022-12-24T05:57:44.476Z,10.59
2022-12-24T06:02:43.281Z,10.60
2022-12-24T06:07:42.274Z,10.49
2022-12-24T06:12:41.081Z,10.40
2022-12-24T06:17:40.096Z,10.40
2022-12-24T06:22:38.937Z,10.26
2022-12-24T06:27:37.780Z,10.26
2022-12-24T06:32:36.529Z,10.24
2022-12-24T06:37:35.503Z,10.26
2022-12-24T06:42:34.525Z,10.27
2022-12-24T06:47:33.422Z,10.30
2022-12-24T06:52:32.389Z,10.40
2022-12-24T06:57:34.265Z,10.39
2022-12-24T07:02:33.079Z,10.53
2022-12-24T07:07:32.276Z,10.61
2022-12-24T07:12:31.271Z,10.62
2022-12-24T07:17:30.547Z,10.70
2022-12-24T07:22:29.373Z,10.73
2022-12-24T07:27:28.351Z,10.71
2022-12-24T07:32:27.186Z,10.61
2022-12-24T07:37:26.265Z,10.65
2022-12-24T07:42:25.160Z,10.54
2022-12-24T07:47:24.490Z,10.53
2022-12-24T07:52:23.406Z,10.49
2022-12-24T07:57:22.375Z,10.62
2022-12-24T08:02:21.329Z,10.64
2022-12-24T08:07:20.288Z,10.52
2022-12-24T08:12:19.058Z,10.63
2022-12-24T08:17:17.869Z,10.52
2022-12-24T08:22:16.699Z,10.44
2022-12-24T08:27:15.586Z,10.52
2022-12-24T08:32:14.354Z,10.39
2022-12-24T08:37:13.156Z,10.53
2022-12-24T08:42:12.568Z,10.59
2022-12-24T08:47:11.531Z,10.62
2022-12-24T08:52:10.289Z,10.74
2022-12-24T08:57:09.856Z,10.69
2022-12-24T09:02:09.482Z,10.81
2022-12-24T09:07:09.359Z,10.84
2022-12-24T09:12:08.937Z,10.97
2022-12-24T09:17:07.826Z,10.88
2022-12-24T09:22:06.698Z,11.17
2022-12-24T09:27:05.653Z,11.63
2022-12-24T09:32:04.741Z,12.11
2022-12-24T09:37:03.966Z,12.05
2022-12-24T09:42:24.466Z,12.38
2022-12-24T09:47:39.799Z,12.02
2022-12-24T09:52:41.199Z,11.80
2022-12-24T09:57:41.786Z,11.70
2022-12-24T10:02:40.778Z,11.53
2022-12-24T10:07:59.558Z,11.63
2022-12-24T10:13:23.498Z,11.51
2022-12-24T10:18:27.560Z,11.42
2022-12-24T10:23:29.515Z,11.48
2022-12-24T10:28:46.111Z,11.38
2022-12-24T10:33:51.620Z,11.43
2022-12-24T10:38:50.920Z,11.48
2022-12-24T10:43:49.943Z,11.61
2022-12-24T10:49:16.345Z,11.45
2022-12-24T10:54:27.437Z,11.52
2022-12-24T10:59:41.975Z,11.26
2022-12-24T11:04:47.779Z,11.30
2022-12-24T11:09:56.665Z,11.42
2022-12-24T11:15:15.992Z,11.35
2022-12-24T11:20:22.887Z,11.35
2022-12-24T11:25:27.778Z,11.24
2022-12-24T11:30:30.251Z,11.21
2022-12-24T11:35:32.438Z,11.23
2022-12-24T11:40:34.156Z,10.99
2022-12-24T11:45:34.507Z,11.20
2022-12-24T11:50:38.057Z,11.09
2022-12-24T11:55:39.733Z,11.31
2022-12-24T12:00:40.822Z,11.34
2022-12-24T12:05:39.973Z,11.39
2022-12-24T12:10:41.344Z,11.57
2022-12-24T12:15:51.569Z,11.50
2022-12-24T12:20:54.268Z,11.62
2022-12-24T12:26:17.533Z,11.43
2022-12-24T12:31:22.875Z,11.50
2022-12-24T12:36:28.778Z,11.68
2022-12-24T12:41:52.578Z,11.42
2022-12-24T12:47:00.566Z,11.26
2022-12-24T12:52:06.785Z,12.43
2022-12-24T12:57:10.807Z,13.07
2022-12-24T13:02:15.542Z,11.94
2022-12-24T13:07:37.664Z,11.74
2022-12-24T13:12:39.843Z,11.43
2022-12-24T13:17:48.244Z,11.50
2022-12-24T13:22:57.370Z,11.71
2022-12-24T13:27:56.110Z,11.76
2022-12-24T13:32:55.257Z,11.80
2022-12-24T13:37:54.078Z,11.77
2022-12-24T13:42:58.898Z,12.08
2022-12-24T13:48:02.677Z,11.72
2022-12-24T13:53:02.254Z,11.67
2022-12-24T13:58:05.960Z,11.84
2022-12-24T14:03:28.314Z,11.80
2022-12-24T14:08:48.810Z,11.61
2022-12-24T14:13:47.742Z,11.48
2022-12-24T14:18:50.844Z,11.56
2022-12-24T14:24:03.058Z,11.55
2022-12-24T14:29:32.264Z,11.57
2022-12-24T14:34:32.030Z,11.33
2022-12-24T14:39:38.048Z,11.17
2022-12-24T14:44:36.737Z,11.12
2022-12-24T14:49:53.400Z,11.15
2022-12-24T14:54:53.037Z,11.34
2022-12-24T14:59:57.382Z,11.19
2022-12-24T15:05:25.513Z,11.02
2022-12-24T15:10:26.689Z,11.05
2022-12-24T15:15:25.645Z,10.93
2022-12-24T15:20:27.519Z,10.65
2022-12-24T15:25:30.751Z,10.79
2022-12-24T15:30:31.237Z,10.62
2022-12-24T15:35:53.361Z,10.59
2022-12-24T15:40:53.262Z,10.56
2022-12-24T15:45:52.838Z,10.71
2022-12-24T15:51:00.594Z,10.63
2022-12-24T15:56:14.058Z,10.69
2022-12-24T16:01:12.946Z,10.56
2022-12-24T16:06:11.887Z,10.51
2022-12-24T16:11:25.363Z,10.62
2022-12-24T16:16:33.837Z,10.60
2022-12-24T16:21:39.623Z,10.57
2022-12-24T16:26:38.523Z,10.53
2022-12-24T16:31:43.574Z,10.15
2022-12-24T16:36:45.963Z,10.12
2022-12-24T16:42:03.341Z,10.05
2022-12-24T16:47:02.294Z,10.00
2022-12-24T16:52:01.114Z,10.05
2022-12-24T16:56:59.996Z,10.11
2022-12-24T17:01:59.185Z,9.69
2022-12-24T17:06:58.297Z,9.73
2022-12-24T17:11:57.190Z,9.63
2022-12-24T17:16:56.065Z,9.65
2022-12-24T17:21:54.850Z,9.54
2022-12-24T17:26:53.704Z,9.44
2022-12-24T17:31:53.107Z,9.24
2022-12-24T17:36:51.924Z,9.02
2022-12-24T17:41:50.884Z,8.99
2022-12-24T17:46:50.842Z,8.74
2022-12-24T17:51:49.797Z,8.74
2022-12-24T17:56:48.648Z,8.40
2022-12-24T18:01:48.151Z,8.29
2022-12-24T18:06:49.613Z,8.12
2022-12-24T18:11:48.814Z,7.82
2022-12-24T18:16:48.204Z,7.59
2022-12-24T18:21:47.086Z,7.51
2022-12-24T18:26:46.518Z,7.37
2022-12-24T18:31:47.914Z,7.09
2022-12-24T18:36:52.928Z,7.02
2022-12-24T18:41:54.065Z,6.52
2022-12-24T18:46:54.651Z,6.40
2022-12-24T18:51:53.895Z,6.61
2022-12-24T18:56:52.964Z,6.47
2022-12-24T19:01:51.877Z,6.02
2022-12-24T19:06:53.468Z,6.18
2022-12-24T19:11:52.524Z,5.88
2022-12-24T19:16:51.600Z,5.88
2022-12-24T19:21:51.691Z,6.12
2022-12-24T19:26:50.574Z,6.17
2022-12-24T19:31:49.468Z,5.99
2022-12-24T19:36:48.445Z,5.90
2022-12-24T19:41:47.299Z,5.94
2022-12-24T19:46:46.304Z,6.03
2022-12-24T19:51:45.082Z,5.77
2022-12-24T19:56:43.898Z,6.24
2022-12-24T20:01:42.879Z,6.30
2022-12-24T20:06:41.822Z,6.72
2022-12-24T20:11:41.094Z,6.59
2022-12-24T20:16:39.976Z,6.80
2022-12-24T20:21:38.762Z,6.81
2022-12-24T20:26:38.222Z,6.84
2022-12-24T20:31:38.021Z,6.71
2022-12-24T20:36:37.831Z,6.68
2022-12-24T20:41:36.900Z,6.38
2022-12-24T20:46:37.969Z,6.19
2022-12-24T20:51:36.714Z,6.12
2022-12-24T20:56:36.627Z,6.11
2022-12-24T21:01:35.525Z,6.20
2022-12-24T21:06:35.491Z,5.87
2022-12-24T21:11:52.284Z,5.90
2022-12-24T21:16:52.847Z,5.92
2022-12-24T21:21:51.804Z,5.76
2022-12-24T21:26:50.581Z,5.99
2022-12-24T21:31:49.303Z,5.87
2022-12-24T21:36:48.259Z,6.00
2022-12-24T21:41:47.287Z,6.01
2022-12-24T21:46:46.030Z,5.93
2022-12-24T21:51:46.893Z,6.13
2022-12-24T21:57:04.494Z,6.02
2022-12-24T22:02:03.883Z,6.10
2022-12-24T22:07:21.186Z,6.32
2022-12-24T22:12:20.104Z,6.43
2022-12-24T22:17:24.841Z,6.51
2022-12-24T22:22:24.556Z,6.69
2022-12-24T22:27:24.009Z,6.98
2022-12-24T22:32:22.787Z,7.03
2022-12-24T22:37:21.560Z,7.14
2022-12-24T22:42:20.966Z,7.10
2022-12-24T22:47:19.712Z,7.19
2022-12-24T22:52:18.875Z,6.87
2022-12-24T22:57:20.632Z,6.74
2022-12-24T23:02:27.581Z,6.73
2022-12-24T23:07:27.177Z,6.63
2022-12-24T23:12:46.260Z,6.39
2022-12-24T23:17:49.071Z,6.50
2022-12-24T23:22:48.060Z,6.64
2022-12-24T23:27:47.084Z,6.44
2022-12-24T23:32:46.030Z,6.30
2022-12-24T23:37:44.864Z,6.24
2022-12-24T23:42:43.667Z,6.35
2022-12-24T23:47:42.450Z,6.30
2022-12-24T23:52:41.636Z,6.59
2022-12-24T23:57:40.536Z,6.64
